createdAt,value
2023-02-27T01:31:27.121Z,6.00
2023-02-27T01:35:43.650Z,6.13
2023-02-27T01:39:36.708Z,5.97
2023-02-27T01:43:29.689Z,6.15
2023-02-27T01:47:22.687Z,5.93
2023-02-27T01:51:20.412Z,6.88
2023-02-27T01:55:14.367Z,6.38
2023-02-27T01:59:10.440Z,6.25
2023-02-27T02:11:39.691Z,6.10
2023-02-27T02:15:38.106Z,6.80
2023-02-27T02:23:53.878Z,5.88
2023-02-27T02:28:02.108Z,5.70
2023-02-27T03:11:33.632Z,6.60
2023-02-27T03:57:00.737Z,6.45
2023-02-27T04:05:14.847Z,6.28
2023-02-27T04:09:38.808Z,7.18
2023-02-27T04:13:57.842Z,6.47
2023-02-27T04:22:28.992Z,6.57
2023-02-27T04:26:38.448Z,7.13
2023-02-27T04:30:44.546Z,7.03
2023-02-27T04:43:43.074Z,6.30
2023-02-27T05:05:25.892Z,6.80
2023-02-27T05:35:30.187Z,8.43
2023-02-27T07:01:45.708Z,10.27
2023-02-27T07:05:38.406Z,10.18
2023-02-27T07:09:31.100Z,9.15
2023-02-27T07:13:24.197Z,9.35
2023-02-27T07:17:17.344Z,8.75
2023-02-27T07:21:10.175Z,8.93
2023-02-27T07:25:03.940Z,8.35
2023-02-27T07:28:56.564Z,8.70
2023-02-27T07:32:50.885Z,8.88
2023-02-27T07:36:44.472Z,8.93
2023-02-27T07:40:37.160Z,9.13
2023-02-27T07:44:29.892Z,8.77
2023-02-27T07:48:22.582Z,8.27
2023-02-27T07:52:15.236Z,7.95
2023-02-27T07:56:08.343Z,8.50
2023-02-27T08:00:01.078Z,8.65
2023-02-27T08:03:54.301Z,9.30
2023-02-27T08:07:46.994Z,8.95
2023-02-27T08:11:39.678Z,9.10
2023-02-27T08:15:32.934Z,8.07
2023-02-27T08:19:25.520Z,8.15
2023-02-27T08:23:18.323Z,8.73
2023-02-27T08:27:11.171Z,8.75
2023-02-27T08:31:03.993Z,9.93
2023-02-27T08:35:00.230Z,10.90
2023-02-27T08:38:52.742Z,10.25
2023-02-27T08:42:45.381Z,7.47
2023-02-27T08:46:38.008Z,5.60
2023-02-27T08:50:31.022Z,6.00
2023-02-27T08:54:23.858Z,5.20
2023-02-27T08:58:17.198Z,4.50
2023-02-27T09:02:11.653Z,4.38
2023-02-27T09:06:04.231Z,4.15
2023-02-27T09:09:57.063Z,5.72
2023-02-27T09:13:51.506Z,9.82
2023-02-27T09:17:44.354Z,9.45
2023-02-27T09:21:37.574Z,8.98
2023-02-27T09:25:30.450Z,9.38
2023-02-27T09:29:24.120Z,9.05
2023-02-27T09:33:16.896Z,9.02
2023-02-27T09:37:09.569Z,6.30
2023-02-27T09:41:03.545Z,5.18
2023-02-27T09:45:03.430Z,4.65
2023-02-27T09:48:58.909Z,4.75
2023-02-27T09:52:51.804Z,4.35
2023-02-27T09:56:59.004Z,3.97
2023-02-27T10:00:58.796Z,3.45
2023-02-27T10:05:14.503Z,2.90
2023-02-27T10:09:41.744Z,3.15
2023-02-27T10:13:40.438Z,3.28
2023-02-27T10:17:43.512Z,2.90
2023-02-27T10:21:50.378Z,3.53
2023-02-27T10:25:49.337Z,2.50
2023-02-27T10:29:42.479Z,2.70
2023-02-27T10:33:40.427Z,2.53
2023-02-27T10:37:33.663Z,2.30
2023-02-27T10:41:28.416Z,2.50
2023-02-27T10:45:21.074Z,2.88
2023-02-27T10:49:19.147Z,2.95
2023-02-27T10:53:26.331Z,2.88
2023-02-27T10:57:26.808Z,5.50
2023-02-27T11:01:20.176Z,5.00
2023-02-27T11:05:27.086Z,5.72
2023-02-27T11:09:20.590Z,5.45
2023-02-27T11:13:24.912Z,4.93
2023-02-27T11:17:29.212Z,7.22
2023-02-27T11:21:29.713Z,6.60
2023-02-27T11:25:24.809Z,5.10
2023-02-27T11:29:19.548Z,5.05
2023-02-27T11:33:19.251Z,5.60
2023-02-27T11:37:49.921Z,6.75
2023-02-27T11:41:45.109Z,4.72
2023-02-27T11:46:13.410Z,6.60
2023-02-27T11:50:21.544Z,7.10
2023-02-27T11:54:23.701Z,5.82
2023-02-27T11:58:22.230Z,7.13
2023-02-27T12:02:18.216Z,5.07
2023-02-27T12:06:20.718Z,5.45
2023-02-27T12:10:21.168Z,6.85
2023-02-27T12:14:38.510Z,6.63
2023-02-27T12:18:35.979Z,5.13
2023-02-27T12:22:37.737Z,6.13
2023-02-27T12:26:38.292Z,4.72
2023-02-27T12:30:39.078Z,6.47
2023-02-27T12:34:47.032Z,5.28
2023-02-27T12:42:57.596Z,4.47
2023-02-27T12:47:18.350Z,4.32
2023-02-27T12:51:24.763Z,4.38
2023-02-27T12:55:23.580Z,4.50
2023-02-27T12:59:45.742Z,4.68
2023-02-27T13:03:54.505Z,4.63
2023-02-27T13:07:59.508Z,6.80
2023-02-27T13:11:55.257Z,4.38
2023-02-27T13:15:56.894Z,4.50
2023-02-27T13:20:01.275Z,4.35
2023-02-27T13:24:30.838Z,4.53
2023-02-27T13:28:27.610Z,4.45
2023-02-27T13:32:43.559Z,4.43
2023-02-27T13:36:55.034Z,4.50
2023-02-27T13:40:47.577Z,4.93
2023-02-27T13:44:41.804Z,4.88
2023-02-27T13:48:34.220Z,4.65
2023-02-27T13:52:37.718Z,3.90
2023-02-27T13:56:30.554Z,5.13
2023-02-27T14:00:26.385Z,5.18
2023-02-27T14:04:21.164Z,5.00
2023-02-27T14:08:21.290Z,4.78
2023-02-27T14:12:45.400Z,5.00
2023-02-27T14:16:41.446Z,4.40
2023-02-27T14:20:33.998Z,4.53
2023-02-27T14:24:33.943Z,4.88
2023-02-27T14:28:38.054Z,4.40
2023-02-27T14:32:34.518Z,4.55
2023-02-27T14:36:29.708Z,5.45
2023-02-27T14:40:34.196Z,5.20
2023-02-27T14:44:36.628Z,4.60
2023-02-27T14:48:29.320Z,5.10
2023-02-27T14:52:27.658Z,4.68
2023-02-27T14:56:20.633Z,4.65
2023-02-27T15:00:39.651Z,4.30
2023-02-27T15:04:33.312Z,4.43
2023-02-27T15:08:33.226Z,4.72
2023-02-27T15:12:26.879Z,5.00
2023-02-27T15:16:25.372Z,4.32
2023-02-27T15:20:24.556Z,4.68
2023-02-27T15:24:24.864Z,4.65
2023-02-27T15:28:26.953Z,4.57
2023-02-27T15:32:29.736Z,4.85
2023-02-27T15:36:26.173Z,5.28
2023-02-27T15:40:27.124Z,4.28
2023-02-27T15:44:45.826Z,4.55
2023-02-27T15:52:39.125Z,4.15
2023-02-27T15:56:37.244Z,3.78
2023-02-27T16:00:31.654Z,4.05
2023-02-27T16:04:26.252Z,4.70
2023-02-27T16:08:21.736Z,4.07
2023-02-27T16:12:28.452Z,4.43
2023-02-27T16:16:35.643Z,6.03
2023-02-27T16:20:41.647Z,6.28
2023-02-27T16:24:36.219Z,6.72
2023-02-27T16:28:45.418Z,6.05
2023-02-27T16:32:44.373Z,6.57
2023-02-27T16:36:37.625Z,6.45
2023-02-27T16:40:31.735Z,7.45
2023-02-27T16:44:25.033Z,9.73
2023-02-27T16:48:18.382Z,9.30
2023-02-27T16:52:12.519Z,8.88
2023-02-27T16:56:10.603Z,10.82
2023-02-27T17:00:08.016Z,12.15
2023-02-27T17:04:04.013Z,11.07
2023-02-27T17:08:02.646Z,11.48
2023-02-27T17:11:57.200Z,11.45
2023-02-27T17:15:49.882Z,10.35
2023-02-27T17:19:43.510Z,10.20
2023-02-27T17:23:36.944Z,11.38
2023-02-27T17:27:30.355Z,17.73
2023-02-27T17:31:24.624Z,15.73
2023-02-27T17:35:19.051Z,12.43
2023-02-27T17:39:14.837Z,12.00
2023-02-27T17:43:10.620Z,10.98
2023-02-27T17:47:04.967Z,9.25
2023-02-27T17:51:07.383Z,8.25
2023-02-27T17:55:00.430Z,7.32
2023-02-27T17:58:53.713Z,10.50
2023-02-27T18:02:48.672Z,8.60
2023-02-27T18:06:42.216Z,7.03
2023-02-27T18:10:36.133Z,7.55
2023-02-27T18:14:29.626Z,10.73
2023-02-27T18:18:23.800Z,8.48
2023-02-27T18:22:18.264Z,7.65
2023-02-27T18:26:30.123Z,8.43
2023-02-27T18:30:30.779Z,11.85
2023-02-27T18:34:25.923Z,11.10
2023-02-27T18:38:21.138Z,10.13
2023-02-27T18:42:17.548Z,36.42
2023-02-27T18:46:12.940Z,21.40
2023-02-27T18:50:10.857Z,11.30
2023-02-27T18:54:07.862Z,8.90
2023-02-27T18:58:01.430Z,6.97
2023-02-27T19:01:55.264Z,6.47
2023-02-27T19:05:49.144Z,6.65
2023-02-27T19:09:44.011Z,8.35
2023-02-27T19:13:41.053Z,9.52
2023-02-27T19:17:34.545Z,8.50
2023-02-27T19:21:29.415Z,9.82
2023-02-27T19:25:24.228Z,11.75
2023-02-27T19:29:17.916Z,12.63
2023-02-27T19:33:11.653Z,9.63
2023-02-27T19:37:05.280Z,10.85
2023-02-27T19:41:11.511Z,13.45
2023-02-27T19:45:07.713Z,11.30
2023-02-27T19:49:07.628Z,12.27
2023-02-27T19:53:03.230Z,12.87
2023-02-27T19:56:56.701Z,11.67
2023-02-27T20:00:50.389Z,13.75
2023-02-27T20:04:44.937Z,11.25
2023-02-27T20:08:38.356Z,9.38
2023-02-27T20:12:32.153Z,7.53
2023-02-27T20:16:31.100Z,8.77
2023-02-27T20:20:25.048Z,10.07
2023-02-27T20:24:19.507Z,12.40
2023-02-27T20:28:13.310Z,15.82
2023-02-27T20:32:09.345Z,14.63
2023-02-27T20:36:09.305Z,12.18
2023-02-27T20:40:05.949Z,13.68
2023-02-27T20:43:59.713Z,12.20
2023-02-27T20:47:53.120Z,9.40
2023-02-27T20:51:48.237Z,9.65
2023-02-27T20:55:51.296Z,9.52
2023-02-27T20:59:44.770Z,9.02
2023-02-27T21:03:43.355Z,8.18
2023-02-27T21:07:38.069Z,11.95
2023-02-27T21:11:33.425Z,9.15
2023-02-27T21:15:26.771Z,6.28
2023-02-27T21:19:20.623Z,6.30
2023-02-27T21:23:14.441Z,6.10
2023-02-27T21:27:08.067Z,5.97
2023-02-27T21:31:06.581Z,6.60
2023-02-27T21:34:59.522Z,7.35
2023-02-27T21:38:59.553Z,8.23
2023-02-27T21:42:53.139Z,8.38
2023-02-27T21:46:46.389Z,8.35
2023-02-27T21:50:39.507Z,8.05
2023-02-27T21:54:32.584Z,7.60
2023-02-27T21:58:25.112Z,7.60
2023-02-27T22:21:10.167Z,7.40
